<?xml version="1.0" encoding="UTF-8" standalone="no" ?>
<gpx xmlns="http://www.topografix.com/GPX/1/1" xmlns:xsi="http://www.w3.org/2001/XMLSchema-instance" xsi:schemaLocation="http://www.topografix.com/GPX/1/1 http://www.topografix.com/GPX/1/1/gpx.xsd" version="1.1" creator="VisuGPX - https://www.visugpx.com">
  <metadata>
    <name>Circuit du Château noir</name>
    <desc><![CDATA[50min de Tours]]></desc>
  </metadata>
  <wpt lat="47.38636" lon="0.07804">
    <ele>70</ele>
    <name><![CDATA[Parking devant la salle des fêtes]]></name>
  </wpt>
  <wpt lat="47.38631" lon="0.07692">
    <ele>71</ele>
    <name><![CDATA[Chemin à droite]]></name>
  </wpt>
  <wpt lat="47.38529" lon="0.07557">
    <ele>72</ele>
    <name><![CDATA[Rue de la Chambarderière]]></name>
  </wpt>
  <wpt lat="47.38445" lon="0.07297">
    <ele>74</ele>
    <name><![CDATA[Carrefour]]></name>
  </wpt>
  <wpt lat="47.38263" lon="0.07292">
    <ele>90</ele>
    <name><![CDATA[Chemin à droite]]></name>
  </wpt>
  <wpt lat="47.38213" lon="0.07159">
    <ele>92</ele>
    <name><![CDATA[Chemin à gauche]]></name>
  </wpt>
  <wpt lat="47.36999" lon="0.04985">
    <ele>101</ele>
    <name><![CDATA[Chemin à droite]]></name>
  </wpt>
  <wpt lat="47.37015" lon="0.04942">
    <ele>102</ele>
    <name><![CDATA[Chemin à droite]]></name>
  </wpt>
  <wpt lat="47.35481" lon="0.05162">
    <ele>75</ele>
    <name><![CDATA[Carrefour]]></name>
  </wpt>
  <wpt lat="47.35746" lon="0.07781">
    <ele>90</ele>
    <name><![CDATA[Traversée de la D85]]></name>
  </wpt>
  <wpt lat="47.35952" lon="0.0857">
    <ele>101</ele>
    <name><![CDATA[La Petite Breille]]></name>
  </wpt>
  <wpt lat="47.35807" lon="0.08816">
    <ele>109</ele>
    <name><![CDATA[Rue de la Petite Breille]]></name>
  </wpt>
  <wpt lat="47.35859" lon="0.09802">
    <ele>117</ele>
    <name><![CDATA[Traversée de la D58]]></name>
  </wpt>
  <wpt lat="47.36954" lon="0.11288">
    <ele>96</ele>
    <name><![CDATA[Chemin à gauche]]></name>
  </wpt>
  <wpt lat="47.36672" lon="0.11895">
    <ele>99</ele>
    <name><![CDATA[Carrefour]]></name>
  </wpt>
  <wpt lat="47.37777" lon="0.11031">
    <ele>96</ele>
    <name><![CDATA[La Maison Neuve]]></name>
  </wpt>
  <wpt lat="47.36898" lon="0.0983">
    <ele>114</ele>
    <name><![CDATA[Chemin à droite]]></name>
  </wpt>
  <wpt lat="47.38428" lon="0.09501">
    <ele>80</ele>
    <name><![CDATA[Route de Bois de Marguerite]]></name>
  </wpt>
  <wpt lat="47.38468" lon="0.0914">
    <ele>74</ele>
    <name><![CDATA[La Jannetière]]></name>
  </wpt>
  <wpt lat="47.38402" lon="0.08318">
    <ele>77</ele>
    <name><![CDATA[Croix]]></name>
  </wpt>
  <wpt lat="47.3863" lon="0.07966">
    <ele>69</ele>
    <name><![CDATA[À gauche vers le prieuré]]></name>
  </wpt>
  <wpt lat="47.38635" lon="0.07806">
    <ele>70</ele>
    <name><![CDATA[Parking devant la salle des fêtes]]></name>
  </wpt>
  <trk>
    <name><![CDATA[Circuit du Château noir]]></name>
    <trkseg>
      <trkpt lat="47.38636" lon="0.07804">
        <ele>70</ele>
        <time>2021-02-20T11:57:35+01:00</time>
      </trkpt>
      <trkpt lat="47.38638" lon="0.07767">
        <ele>70</ele>
        <time>2021-02-20T11:57:40+01:00</time>
      </trkpt>
      <trkpt lat="47.38639" lon="0.0774">
        <ele>70</ele>
        <time>2021-02-20T11:57:45+01:00</time>
      </trkpt>
      <trkpt lat="47.38631" lon="0.07692">
        <ele>71</ele>
        <time>2021-02-20T11:57:50+01:00</time>
      </trkpt>
      <trkpt lat="47.38631" lon="0.07672">
        <ele>71</ele>
        <time>2021-02-20T11:57:55+01:00</time>
      </trkpt>
      <trkpt lat="47.38625" lon="0.07649">
        <ele>71</ele>
        <time>2021-02-20T11:58:00+01:00</time>
      </trkpt>
      <trkpt lat="47.38629" lon="0.07615">
        <ele>70</ele>
        <time>2021-02-20T11:58:05+01:00</time>
      </trkpt>
      <trkpt lat="47.38628" lon="0.076">
        <ele>70</ele>
        <time>2021-02-20T11:58:10+01:00</time>
      </trkpt>
      <trkpt lat="47.38634" lon="0.07552">
        <ele>69</ele>
        <time>2021-02-20T11:58:15+01:00</time>
      </trkpt>
      <trkpt lat="47.38624" lon="0.0755">
        <ele>69</ele>
        <time>2021-02-20T11:58:20+01:00</time>
      </trkpt>
      <trkpt lat="47.38595" lon="0.07552">
        <ele>70</ele>
        <time>2021-02-20T11:58:25+01:00</time>
      </trkpt>
      <trkpt lat="47.38538" lon="0.07554">
        <ele>72</ele>
        <time>2021-02-20T11:58:30+01:00</time>
      </trkpt>
      <trkpt lat="47.38529" lon="0.07557">
        <ele>72</ele>
        <time>2021-02-20T11:58:35+01:00</time>
      </trkpt>
      <trkpt lat="47.38492" lon="0.07553">
        <ele>74</ele>
        <time>2021-02-20T11:58:40+01:00</time>
      </trkpt>
      <trkpt lat="47.38463" lon="0.07549">
        <ele>77</ele>
        <time>2021-02-20T11:58:45+01:00</time>
      </trkpt>
      <trkpt lat="47.38453" lon="0.0754">
        <ele>77</ele>
        <time>2021-02-20T11:58:50+01:00</time>
      </trkpt>
      <trkpt lat="47.3845" lon="0.07484">
        <ele>77</ele>
        <time>2021-02-20T11:58:55+01:00</time>
      </trkpt>
      <trkpt lat="47.38447" lon="0.07422">
        <ele>76</ele>
        <time>2021-02-20T11:59:00+01:00</time>
      </trkpt>
      <trkpt lat="47.38445" lon="0.07401">
        <ele>76</ele>
        <time>2021-02-20T11:59:05+01:00</time>
      </trkpt>
      <trkpt lat="47.38445" lon="0.07369">
        <ele>75</ele>
        <time>2021-02-20T11:59:10+01:00</time>
      </trkpt>
      <trkpt lat="47.38445" lon="0.07297">
        <ele>74</ele>
        <time>2021-02-20T11:59:15+01:00</time>
      </trkpt>
      <trkpt lat="47.38395" lon="0.07303">
        <ele>77</ele>
        <time>2021-02-20T11:59:20+01:00</time>
      </trkpt>
      <trkpt lat="47.38343" lon="0.07307">
        <ele>81</ele>
        <time>2021-02-20T11:59:25+01:00</time>
      </trkpt>
      <trkpt lat="47.38314" lon="0.07305">
        <ele>84</ele>
        <time>2021-02-20T11:59:30+01:00</time>
      </trkpt>
      <trkpt lat="47.38305" lon="0.07304">
        <ele>85</ele>
        <time>2021-02-20T11:59:35+01:00</time>
      </trkpt>
      <trkpt lat="47.38292" lon="0.07301">
        <ele>87</ele>
        <time>2021-02-20T11:59:40+01:00</time>
      </trkpt>
      <trkpt lat="47.38273" lon="0.07296">
        <ele>89</ele>
        <time>2021-02-20T11:59:45+01:00</time>
      </trkpt>
      <trkpt lat="47.38263" lon="0.07292">
        <ele>90</ele>
        <time>2021-02-20T11:59:50+01:00</time>
      </trkpt>
      <trkpt lat="47.38243" lon="0.07233">
        <ele>91</ele>
        <time>2021-02-20T11:59:55+01:00</time>
      </trkpt>
      <trkpt lat="47.38231" lon="0.07199">
        <ele>92</ele>
        <time>2021-02-20T12:00:00+01:00</time>
      </trkpt>
      <trkpt lat="47.38224" lon="0.07182">
        <ele>92</ele>
        <time>2021-02-20T12:00:05+01:00</time>
      </trkpt>
      <trkpt lat="47.38213" lon="0.07159">
        <ele>92</ele>
        <time>2021-02-20T12:00:10+01:00</time>
      </trkpt>
      <trkpt lat="47.38204" lon="0.0715">
        <ele>93</ele>
        <time>2021-02-20T12:00:15+01:00</time>
      </trkpt>
      <trkpt lat="47.38194" lon="0.07138">
        <ele>93</ele>
        <time>2021-02-20T12:00:20+01:00</time>
      </trkpt>
      <trkpt lat="47.38168" lon="0.07112">
        <ele>95</ele>
        <time>2021-02-20T12:00:25+01:00</time>
      </trkpt>
      <trkpt lat="47.3815" lon="0.07098">
        <ele>94</ele>
        <time>2021-02-20T12:00:30+01:00</time>
      </trkpt>
      <trkpt lat="47.38128" lon="0.07086">
        <ele>93</ele>
        <time>2021-02-20T12:00:35+01:00</time>
      </trkpt>
      <trkpt lat="47.38103" lon="0.07069">
        <ele>93</ele>
        <time>2021-02-20T12:00:40+01:00</time>
      </trkpt>
      <trkpt lat="47.38055" lon="0.07038">
        <ele>93</ele>
        <time>2021-02-20T12:00:45+01:00</time>
      </trkpt>
      <trkpt lat="47.38007" lon="0.07007">
        <ele>90</ele>
        <time>2021-02-20T12:00:50+01:00</time>
      </trkpt>
      <trkpt lat="47.3798" lon="0.06983">
        <ele>90</ele>
        <time>2021-02-20T12:00:55+01:00</time>
      </trkpt>
      <trkpt lat="47.37958" lon="0.06953">
        <ele>89</ele>
        <time>2021-02-20T12:01:00+01:00</time>
      </trkpt>
      <trkpt lat="47.37945" lon="0.06931">
        <ele>88</ele>
        <time>2021-02-20T12:01:05+01:00</time>
      </trkpt>
      <trkpt lat="47.37916" lon="0.06885">
        <ele>86</ele>
        <time>2021-02-20T12:01:10+01:00</time>
      </trkpt>
      <trkpt lat="47.37884" lon="0.06834">
        <ele>86</ele>
        <time>2021-02-20T12:01:15+01:00</time>
      </trkpt>
      <trkpt lat="47.3786" lon="0.06788">
        <ele>89</ele>
        <time>2021-02-20T12:01:20+01:00</time>
      </trkpt>
      <trkpt lat="47.37828" lon="0.06687">
        <ele>93</ele>
        <time>2021-02-20T12:01:25+01:00</time>
      </trkpt>
      <trkpt lat="47.37785" lon="0.06533">
        <ele>102</ele>
        <time>2021-02-20T12:01:30+01:00</time>
      </trkpt>
      <trkpt lat="47.37777" lon="0.06516">
        <ele>103</ele>
        <time>2021-02-20T12:01:35+01:00</time>
      </trkpt>
      <trkpt lat="47.37768" lon="0.06505">
        <ele>104</ele>
        <time>2021-02-20T12:01:40+01:00</time>
      </trkpt>
      <trkpt lat="47.37731" lon="0.06475">
        <ele>108</ele>
        <time>2021-02-20T12:01:45+01:00</time>
      </trkpt>
      <trkpt lat="47.37695" lon="0.06458">
        <ele>111</ele>
        <time>2021-02-20T12:01:50+01:00</time>
      </trkpt>
      <trkpt lat="47.37664" lon="0.06438">
        <ele>113</ele>
        <time>2021-02-20T12:01:55+01:00</time>
      </trkpt>
      <trkpt lat="47.37637" lon="0.06419">
        <ele>114</ele>
        <time>2021-02-20T12:02:00+01:00</time>
      </trkpt>
      <trkpt lat="47.37611" lon="0.06391">
        <ele>113</ele>
        <time>2021-02-20T12:02:05+01:00</time>
      </trkpt>
      <trkpt lat="47.3759" lon="0.06368">
        <ele>113</ele>
        <time>2021-02-20T12:02:10+01:00</time>
      </trkpt>
      <trkpt lat="47.37577" lon="0.06358">
        <ele>112</ele>
        <time>2021-02-20T12:02:15+01:00</time>
      </trkpt>
      <trkpt lat="47.37557" lon="0.06338">
        <ele>113</ele>
        <time>2021-02-20T12:02:20+01:00</time>
      </trkpt>
      <trkpt lat="47.37543" lon="0.06315">
        <ele>113</ele>
        <time>2021-02-20T12:02:25+01:00</time>
      </trkpt>
      <trkpt lat="47.37524" lon="0.06285">
        <ele>114</ele>
        <time>2021-02-20T12:02:30+01:00</time>
      </trkpt>
      <trkpt lat="47.37499" lon="0.06241">
        <ele>115</ele>
        <time>2021-02-20T12:02:35+01:00</time>
      </trkpt>
      <trkpt lat="47.37465" lon="0.06186">
        <ele>112</ele>
        <time>2021-02-20T12:02:40+01:00</time>
      </trkpt>
      <trkpt lat="47.3744" lon="0.06133">
        <ele>110</ele>
        <time>2021-02-20T12:02:45+01:00</time>
      </trkpt>
      <trkpt lat="47.37419" lon="0.06086">
        <ele>111</ele>
        <time>2021-02-20T12:02:50+01:00</time>
      </trkpt>
      <trkpt lat="47.37384" lon="0.06021">
        <ele>110</ele>
        <time>2021-02-20T12:02:55+01:00</time>
      </trkpt>
      <trkpt lat="47.37351" lon="0.0595">
        <ele>109</ele>
        <time>2021-02-20T12:03:00+01:00</time>
      </trkpt>
      <trkpt lat="47.37229" lon="0.05746">
        <ele>106</ele>
        <time>2021-02-20T12:03:05+01:00</time>
      </trkpt>
      <trkpt lat="47.37164" lon="0.05618">
        <ele>106</ele>
        <time>2021-02-20T12:03:10+01:00</time>
      </trkpt>
      <trkpt lat="47.37108" lon="0.05494">
        <ele>104</ele>
        <time>2021-02-20T12:03:15+01:00</time>
      </trkpt>
      <trkpt lat="47.37099" lon="0.05464">
        <ele>105</ele>
        <time>2021-02-20T12:03:20+01:00</time>
      </trkpt>
      <trkpt lat="47.37066" lon="0.05331">
        <ele>103</ele>
        <time>2021-02-20T12:03:25+01:00</time>
      </trkpt>
      <trkpt lat="47.37055" lon="0.05267">
        <ele>102</ele>
        <time>2021-02-20T12:03:30+01:00</time>
      </trkpt>
      <trkpt lat="47.37026" lon="0.05113">
        <ele>101</ele>
        <time>2021-02-20T12:03:35+01:00</time>
      </trkpt>
      <trkpt lat="47.36999" lon="0.04985">
        <ele>101</ele>
        <time>2021-02-20T12:03:40+01:00</time>
      </trkpt>
      <trkpt lat="47.37015" lon="0.04942">
        <ele>102</ele>
        <time>2021-02-20T12:03:45+01:00</time>
      </trkpt>
      <trkpt lat="47.37053" lon="0.04845">
        <ele>103</ele>
        <time>2021-02-20T12:03:50+01:00</time>
      </trkpt>
      <trkpt lat="47.37017" lon="0.04838">
        <ele>103</ele>
        <time>2021-02-20T12:03:55+01:00</time>
      </trkpt>
      <trkpt lat="47.36986" lon="0.04828">
        <ele>103</ele>
        <time>2021-02-20T12:04:00+01:00</time>
      </trkpt>
      <trkpt lat="47.36971" lon="0.04823">
        <ele>102</ele>
        <time>2021-02-20T12:04:05+01:00</time>
      </trkpt>
      <trkpt lat="47.36945" lon="0.04812">
        <ele>101</ele>
        <time>2021-02-20T12:04:10+01:00</time>
      </trkpt>
      <trkpt lat="47.36925" lon="0.04805">
        <ele>101</ele>
        <time>2021-02-20T12:04:15+01:00</time>
      </trkpt>
      <trkpt lat="47.36902" lon="0.04801">
        <ele>100</ele>
        <time>2021-02-20T12:04:20+01:00</time>
      </trkpt>
      <trkpt lat="47.36816" lon="0.04798">
        <ele>99</ele>
        <time>2021-02-20T12:04:25+01:00</time>
      </trkpt>
      <trkpt lat="47.36739" lon="0.04811">
        <ele>102</ele>
        <time>2021-02-20T12:04:30+01:00</time>
      </trkpt>
      <trkpt lat="47.36688" lon="0.0482">
        <ele>103</ele>
        <time>2021-02-20T12:04:35+01:00</time>
      </trkpt>
      <trkpt lat="47.36666" lon="0.04823">
        <ele>104</ele>
        <time>2021-02-20T12:04:40+01:00</time>
      </trkpt>
      <trkpt lat="47.36656" lon="0.04825">
        <ele>104</ele>
        <time>2021-02-20T12:04:45+01:00</time>
      </trkpt>
      <trkpt lat="47.36633" lon="0.04831">
        <ele>105</ele>
        <time>2021-02-20T12:04:50+01:00</time>
      </trkpt>
      <trkpt lat="47.36609" lon="0.04836">
        <ele>106</ele>
        <time>2021-02-20T12:04:55+01:00</time>
      </trkpt>
      <trkpt lat="47.36574" lon="0.0485">
        <ele>107</ele>
        <time>2021-02-20T12:05:00+01:00</time>
      </trkpt>
      <trkpt lat="47.36554" lon="0.04858">
        <ele>106</ele>
        <time>2021-02-20T12:05:05+01:00</time>
      </trkpt>
      <trkpt lat="47.36533" lon="0.04867">
        <ele>106</ele>
        <time>2021-02-20T12:05:10+01:00</time>
      </trkpt>
      <trkpt lat="47.36516" lon="0.04873">
        <ele>105</ele>
        <time>2021-02-20T12:05:15+01:00</time>
      </trkpt>
      <trkpt lat="47.36468" lon="0.04889">
        <ele>102</ele>
        <time>2021-02-20T12:05:20+01:00</time>
      </trkpt>
      <trkpt lat="47.36439" lon="0.04903">
        <ele>100</ele>
        <time>2021-02-20T12:05:25+01:00</time>
      </trkpt>
      <trkpt lat="47.36416" lon="0.04918">
        <ele>99</ele>
        <time>2021-02-20T12:05:30+01:00</time>
      </trkpt>
      <trkpt lat="47.36381" lon="0.04938">
        <ele>96</ele>
        <time>2021-02-20T12:05:35+01:00</time>
      </trkpt>
      <trkpt lat="47.36348" lon="0.04951">
        <ele>93</ele>
        <time>2021-02-20T12:05:40+01:00</time>
      </trkpt>
      <trkpt lat="47.36326" lon="0.04957">
        <ele>91</ele>
        <time>2021-02-20T12:05:45+01:00</time>
      </trkpt>
      <trkpt lat="47.36305" lon="0.04961">
        <ele>89</ele>
        <time>2021-02-20T12:05:50+01:00</time>
      </trkpt>
      <trkpt lat="47.36284" lon="0.04962">
        <ele>88</ele>
        <time>2021-02-20T12:05:55+01:00</time>
      </trkpt>
      <trkpt lat="47.36273" lon="0.04961">
        <ele>87</ele>
        <time>2021-02-20T12:06:00+01:00</time>
      </trkpt>
      <trkpt lat="47.36264" lon="0.04957">
        <ele>86</ele>
        <time>2021-02-20T12:06:05+01:00</time>
      </trkpt>
      <trkpt lat="47.36249" lon="0.04948">
        <ele>85</ele>
        <time>2021-02-20T12:06:10+01:00</time>
      </trkpt>
      <trkpt lat="47.36241" lon="0.04942">
        <ele>85</ele>
        <time>2021-02-20T12:06:15+01:00</time>
      </trkpt>
      <trkpt lat="47.36235" lon="0.04939">
        <ele>84</ele>
        <time>2021-02-20T12:06:20+01:00</time>
      </trkpt>
      <trkpt lat="47.36229" lon="0.04937">
        <ele>84</ele>
        <time>2021-02-20T12:06:25+01:00</time>
      </trkpt>
      <trkpt lat="47.36223" lon="0.04935">
        <ele>84</ele>
        <time>2021-02-20T12:06:30+01:00</time>
      </trkpt>
      <trkpt lat="47.3621" lon="0.04934">
        <ele>83</ele>
        <time>2021-02-20T12:06:35+01:00</time>
      </trkpt>
      <trkpt lat="47.36193" lon="0.04932">
        <ele>82</ele>
        <time>2021-02-20T12:06:40+01:00</time>
      </trkpt>
      <trkpt lat="47.36155" lon="0.0494">
        <ele>80</ele>
        <time>2021-02-20T12:06:45+01:00</time>
      </trkpt>
      <trkpt lat="47.36099" lon="0.04966">
        <ele>77</ele>
        <time>2021-02-20T12:06:50+01:00</time>
      </trkpt>
      <trkpt lat="47.36045" lon="0.04996">
        <ele>76</ele>
        <time>2021-02-20T12:06:55+01:00</time>
      </trkpt>
      <trkpt lat="47.36016" lon="0.05009">
        <ele>74</ele>
        <time>2021-02-20T12:07:00+01:00</time>
      </trkpt>
      <trkpt lat="47.36006" lon="0.05022">
        <ele>74</ele>
        <time>2021-02-20T12:07:05+01:00</time>
      </trkpt>
      <trkpt lat="47.36" lon="0.05031">
        <ele>74</ele>
        <time>2021-02-20T12:07:10+01:00</time>
      </trkpt>
      <trkpt lat="47.35973" lon="0.05071">
        <ele>75</ele>
        <time>2021-02-20T12:07:15+01:00</time>
      </trkpt>
      <trkpt lat="47.35947" lon="0.05092">
        <ele>75</ele>
        <time>2021-02-20T12:07:20+01:00</time>
      </trkpt>
      <trkpt lat="47.3587" lon="0.05141">
        <ele>75</ele>
        <time>2021-02-20T12:07:25+01:00</time>
      </trkpt>
      <trkpt lat="47.35866" lon="0.05144">
        <ele>75</ele>
        <time>2021-02-20T12:07:30+01:00</time>
      </trkpt>
      <trkpt lat="47.35831" lon="0.05162">
        <ele>75</ele>
        <time>2021-02-20T12:07:35+01:00</time>
      </trkpt>
      <trkpt lat="47.35801" lon="0.05182">
        <ele>76</ele>
        <time>2021-02-20T12:07:40+01:00</time>
      </trkpt>
      <trkpt lat="47.35763" lon="0.05211">
        <ele>77</ele>
        <time>2021-02-20T12:07:45+01:00</time>
      </trkpt>
      <trkpt lat="47.35749" lon="0.05227">
        <ele>78</ele>
        <time>2021-02-20T12:07:50+01:00</time>
      </trkpt>
      <trkpt lat="47.35734" lon="0.05238">
        <ele>79</ele>
        <time>2021-02-20T12:07:55+01:00</time>
      </trkpt>
      <trkpt lat="47.35726" lon="0.05245">
        <ele>79</ele>
        <time>2021-02-20T12:08:00+01:00</time>
      </trkpt>
      <trkpt lat="47.35721" lon="0.05248">
        <ele>79</ele>
        <time>2021-02-20T12:08:05+01:00</time>
      </trkpt>
      <trkpt lat="47.35682" lon="0.05278">
        <ele>80</ele>
        <time>2021-02-20T12:08:10+01:00</time>
      </trkpt>
      <trkpt lat="47.35653" lon="0.05305">
        <ele>79</ele>
        <time>2021-02-20T12:08:15+01:00</time>
      </trkpt>
      <trkpt lat="47.35642" lon="0.05317">
        <ele>78</ele>
        <time>2021-02-20T12:08:20+01:00</time>
      </trkpt>
      <trkpt lat="47.35617" lon="0.05327">
        <ele>77</ele>
        <time>2021-02-20T12:08:25+01:00</time>
      </trkpt>
      <trkpt lat="47.35609" lon="0.05327">
        <ele>77</ele>
        <time>2021-02-20T12:08:30+01:00</time>
      </trkpt>
      <trkpt lat="47.35596" lon="0.0532">
        <ele>77</ele>
        <time>2021-02-20T12:08:35+01:00</time>
      </trkpt>
      <trkpt lat="47.35573" lon="0.05291">
        <ele>76</ele>
        <time>2021-02-20T12:08:40+01:00</time>
      </trkpt>
      <trkpt lat="47.3552" lon="0.05218">
        <ele>75</ele>
        <time>2021-02-20T12:08:45+01:00</time>
      </trkpt>
      <trkpt lat="47.35486" lon="0.05168">
        <ele>75</ele>
        <time>2021-02-20T12:08:50+01:00</time>
      </trkpt>
      <trkpt lat="47.35481" lon="0.05162">
        <ele>75</ele>
        <time>2021-02-20T12:08:55+01:00</time>
      </trkpt>
      <trkpt lat="47.35462" lon="0.05173">
        <ele>75</ele>
        <time>2021-02-20T12:09:00+01:00</time>
      </trkpt>
      <trkpt lat="47.35426" lon="0.05275">
        <ele>76</ele>
        <time>2021-02-20T12:09:05+01:00</time>
      </trkpt>
      <trkpt lat="47.35378" lon="0.05436">
        <ele>72</ele>
        <time>2021-02-20T12:09:10+01:00</time>
      </trkpt>
      <trkpt lat="47.35307" lon="0.05652">
        <ele>77</ele>
        <time>2021-02-20T12:09:15+01:00</time>
      </trkpt>
      <trkpt lat="47.35274" lon="0.05758">
        <ele>78</ele>
        <time>2021-02-20T12:09:20+01:00</time>
      </trkpt>
      <trkpt lat="47.35256" lon="0.05816">
        <ele>76</ele>
        <time>2021-02-20T12:09:25+01:00</time>
      </trkpt>
      <trkpt lat="47.35219" lon="0.0592">
        <ele>74</ele>
        <time>2021-02-20T12:09:30+01:00</time>
      </trkpt>
      <trkpt lat="47.35147" lon="0.06144">
        <ele>74</ele>
        <time>2021-02-20T12:09:35+01:00</time>
      </trkpt>
      <trkpt lat="47.35091" lon="0.0632">
        <ele>73</ele>
        <time>2021-02-20T12:09:40+01:00</time>
      </trkpt>
      <trkpt lat="47.3508" lon="0.06355">
        <ele>73</ele>
        <time>2021-02-20T12:09:45+01:00</time>
      </trkpt>
      <trkpt lat="47.35075" lon="0.06369">
        <ele>74</ele>
        <time>2021-02-20T12:09:50+01:00</time>
      </trkpt>
      <trkpt lat="47.35129" lon="0.06465">
        <ele>74</ele>
        <time>2021-02-20T12:09:55+01:00</time>
      </trkpt>
      <trkpt lat="47.3517" lon="0.06527">
        <ele>75</ele>
        <time>2021-02-20T12:10:00+01:00</time>
      </trkpt>
      <trkpt lat="47.35207" lon="0.06571">
        <ele>78</ele>
        <time>2021-02-20T12:10:05+01:00</time>
      </trkpt>
      <trkpt lat="47.35298" lon="0.06674">
        <ele>80</ele>
        <time>2021-02-20T12:10:10+01:00</time>
      </trkpt>
      <trkpt lat="47.35319" lon="0.06708">
        <ele>79</ele>
        <time>2021-02-20T12:10:15+01:00</time>
      </trkpt>
      <trkpt lat="47.3534" lon="0.06741">
        <ele>80</ele>
        <time>2021-02-20T12:10:20+01:00</time>
      </trkpt>
      <trkpt lat="47.35375" lon="0.06823">
        <ele>79</ele>
        <time>2021-02-20T12:10:25+01:00</time>
      </trkpt>
      <trkpt lat="47.35378" lon="0.06834">
        <ele>79</ele>
        <time>2021-02-20T12:10:30+01:00</time>
      </trkpt>
      <trkpt lat="47.3539" lon="0.06854">
        <ele>80</ele>
        <time>2021-02-20T12:10:35+01:00</time>
      </trkpt>
      <trkpt lat="47.3545" lon="0.06981">
        <ele>82</ele>
        <time>2021-02-20T12:10:40+01:00</time>
      </trkpt>
      <trkpt lat="47.35461" lon="0.0701">
        <ele>82</ele>
        <time>2021-02-20T12:10:45+01:00</time>
      </trkpt>
      <trkpt lat="47.35471" lon="0.0704">
        <ele>83</ele>
        <time>2021-02-20T12:10:50+01:00</time>
      </trkpt>
      <trkpt lat="47.35477" lon="0.07067">
        <ele>84</ele>
        <time>2021-02-20T12:10:55+01:00</time>
      </trkpt>
      <trkpt lat="47.35483" lon="0.0709">
        <ele>84</ele>
        <time>2021-02-20T12:11:00+01:00</time>
      </trkpt>
      <trkpt lat="47.35486" lon="0.07122">
        <ele>84</ele>
        <time>2021-02-20T12:11:05+01:00</time>
      </trkpt>
      <trkpt lat="47.35493" lon="0.07154">
        <ele>84</ele>
        <time>2021-02-20T12:11:10+01:00</time>
      </trkpt>
      <trkpt lat="47.35509" lon="0.07214">
        <ele>85</ele>
        <time>2021-02-20T12:11:15+01:00</time>
      </trkpt>
      <trkpt lat="47.35523" lon="0.07255">
        <ele>86</ele>
        <time>2021-02-20T12:11:20+01:00</time>
      </trkpt>
      <trkpt lat="47.35533" lon="0.07288">
        <ele>87</ele>
        <time>2021-02-20T12:11:25+01:00</time>
      </trkpt>
      <trkpt lat="47.35554" lon="0.07331">
        <ele>86</ele>
        <time>2021-02-20T12:11:30+01:00</time>
      </trkpt>
      <trkpt lat="47.35581" lon="0.07366">
        <ele>85</ele>
        <time>2021-02-20T12:11:35+01:00</time>
      </trkpt>
      <trkpt lat="47.35616" lon="0.07418">
        <ele>85</ele>
        <time>2021-02-20T12:11:40+01:00</time>
      </trkpt>
      <trkpt lat="47.35638" lon="0.07458">
        <ele>86</ele>
        <time>2021-02-20T12:11:45+01:00</time>
      </trkpt>
      <trkpt lat="47.35653" lon="0.0749">
        <ele>86</ele>
        <time>2021-02-20T12:11:50+01:00</time>
      </trkpt>
      <trkpt lat="47.35666" lon="0.07522">
        <ele>87</ele>
        <time>2021-02-20T12:11:55+01:00</time>
      </trkpt>
      <trkpt lat="47.35688" lon="0.07575">
        <ele>89</ele>
        <time>2021-02-20T12:12:00+01:00</time>
      </trkpt>
      <trkpt lat="47.35705" lon="0.07612">
        <ele>89</ele>
        <time>2021-02-20T12:12:05+01:00</time>
      </trkpt>
      <trkpt lat="47.35711" lon="0.07629">
        <ele>89</ele>
        <time>2021-02-20T12:12:10+01:00</time>
      </trkpt>
      <trkpt lat="47.35726" lon="0.07678">
        <ele>89</ele>
        <time>2021-02-20T12:12:15+01:00</time>
      </trkpt>
      <trkpt lat="47.35745" lon="0.07769">
        <ele>89</ele>
        <time>2021-02-20T12:12:20+01:00</time>
      </trkpt>
      <trkpt lat="47.35746" lon="0.07781">
        <ele>90</ele>
        <time>2021-02-20T12:12:25+01:00</time>
      </trkpt>
      <trkpt lat="47.35753" lon="0.07792">
        <ele>90</ele>
        <time>2021-02-20T12:12:30+01:00</time>
      </trkpt>
      <trkpt lat="47.35835" lon="0.07932">
        <ele>95</ele>
        <time>2021-02-20T12:12:35+01:00</time>
      </trkpt>
      <trkpt lat="47.35884" lon="0.08023">
        <ele>96</ele>
        <time>2021-02-20T12:12:40+01:00</time>
      </trkpt>
      <trkpt lat="47.35916" lon="0.08078">
        <ele>94</ele>
        <time>2021-02-20T12:12:45+01:00</time>
      </trkpt>
      <trkpt lat="47.35936" lon="0.08101">
        <ele>95</ele>
        <time>2021-02-20T12:12:50+01:00</time>
      </trkpt>
      <trkpt lat="47.35962" lon="0.08131">
        <ele>97</ele>
        <time>2021-02-20T12:12:55+01:00</time>
      </trkpt>
      <trkpt lat="47.3598" lon="0.08161">
        <ele>97</ele>
        <time>2021-02-20T12:13:00+01:00</time>
      </trkpt>
      <trkpt lat="47.36032" lon="0.08238">
        <ele>99</ele>
        <time>2021-02-20T12:13:05+01:00</time>
      </trkpt>
      <trkpt lat="47.36058" lon="0.0828">
        <ele>101</ele>
        <time>2021-02-20T12:13:10+01:00</time>
      </trkpt>
      <trkpt lat="47.36067" lon="0.08308">
        <ele>101</ele>
        <time>2021-02-20T12:13:15+01:00</time>
      </trkpt>
      <trkpt lat="47.36079" lon="0.0834">
        <ele>101</ele>
        <time>2021-02-20T12:13:20+01:00</time>
      </trkpt>
      <trkpt lat="47.36089" lon="0.08372">
        <ele>101</ele>
        <time>2021-02-20T12:13:25+01:00</time>
      </trkpt>
      <trkpt lat="47.36098" lon="0.08408">
        <ele>100</ele>
        <time>2021-02-20T12:13:30+01:00</time>
      </trkpt>
      <trkpt lat="47.361" lon="0.08426">
        <ele>100</ele>
        <time>2021-02-20T12:13:35+01:00</time>
      </trkpt>
      <trkpt lat="47.36108" lon="0.08495">
        <ele>100</ele>
        <time>2021-02-20T12:13:40+01:00</time>
      </trkpt>
      <trkpt lat="47.36109" lon="0.0854">
        <ele>101</ele>
        <time>2021-02-20T12:13:45+01:00</time>
      </trkpt>
      <trkpt lat="47.3611" lon="0.08556">
        <ele>102</ele>
        <time>2021-02-20T12:13:50+01:00</time>
      </trkpt>
      <trkpt lat="47.36104" lon="0.08564">
        <ele>101</ele>
        <time>2021-02-20T12:13:55+01:00</time>
      </trkpt>
      <trkpt lat="47.36096" lon="0.08571">
        <ele>101</ele>
        <time>2021-02-20T12:14:00+01:00</time>
      </trkpt>
      <trkpt lat="47.36085" lon="0.08578">
        <ele>100</ele>
        <time>2021-02-20T12:14:05+01:00</time>
      </trkpt>
      <trkpt lat="47.36061" lon="0.08592">
        <ele>100</ele>
        <time>2021-02-20T12:14:10+01:00</time>
      </trkpt>
      <trkpt lat="47.3603" lon="0.08605">
        <ele>100</ele>
        <time>2021-02-20T12:14:15+01:00</time>
      </trkpt>
      <trkpt lat="47.36018" lon="0.08609">
        <ele>100</ele>
        <time>2021-02-20T12:14:20+01:00</time>
      </trkpt>
      <trkpt lat="47.36003" lon="0.08611">
        <ele>100</ele>
        <time>2021-02-20T12:14:25+01:00</time>
      </trkpt>
      <trkpt lat="47.35988" lon="0.08601">
        <ele>100</ele>
        <time>2021-02-20T12:14:30+01:00</time>
      </trkpt>
      <trkpt lat="47.35969" lon="0.08575">
        <ele>100</ele>
        <time>2021-02-20T12:14:35+01:00</time>
      </trkpt>
      <trkpt lat="47.35959" lon="0.08572">
        <ele>101</ele>
        <time>2021-02-20T12:14:40+01:00</time>
      </trkpt>
      <trkpt lat="47.35952" lon="0.0857">
        <ele>101</ele>
        <time>2021-02-20T12:14:45+01:00</time>
      </trkpt>
      <trkpt lat="47.35949" lon="0.0857">
        <ele>101</ele>
        <time>2021-02-20T12:14:50+01:00</time>
      </trkpt>
      <trkpt lat="47.35947" lon="0.08571">
        <ele>101</ele>
        <time>2021-02-20T12:14:55+01:00</time>
      </trkpt>
      <trkpt lat="47.35895" lon="0.08622">
        <ele>105</ele>
        <time>2021-02-20T12:15:00+01:00</time>
      </trkpt>
      <trkpt lat="47.35853" lon="0.08666">
        <ele>107</ele>
        <time>2021-02-20T12:15:05+01:00</time>
      </trkpt>
      <trkpt lat="47.35798" lon="0.08715">
        <ele>110</ele>
        <time>2021-02-20T12:15:10+01:00</time>
      </trkpt>
      <trkpt lat="47.35798" lon="0.08724">
        <ele>109</ele>
        <time>2021-02-20T12:15:15+01:00</time>
      </trkpt>
      <trkpt lat="47.35807" lon="0.08768">
        <ele>108</ele>
        <time>2021-02-20T12:15:20+01:00</time>
      </trkpt>
      <trkpt lat="47.35812" lon="0.08803">
        <ele>109</ele>
        <time>2021-02-20T12:15:25+01:00</time>
      </trkpt>
      <trkpt lat="47.35807" lon="0.08816">
        <ele>109</ele>
        <time>2021-02-20T12:15:30+01:00</time>
      </trkpt>
      <trkpt lat="47.35801" lon="0.08829">
        <ele>109</ele>
        <time>2021-02-20T12:15:35+01:00</time>
      </trkpt>
      <trkpt lat="47.35792" lon="0.08846">
        <ele>110</ele>
        <time>2021-02-20T12:15:40+01:00</time>
      </trkpt>
      <trkpt lat="47.35738" lon="0.08936">
        <ele>114</ele>
        <time>2021-02-20T12:15:45+01:00</time>
      </trkpt>
      <trkpt lat="47.3572" lon="0.08968">
        <ele>115</ele>
        <time>2021-02-20T12:15:50+01:00</time>
      </trkpt>
      <trkpt lat="47.35714" lon="0.0899">
        <ele>115</ele>
        <time>2021-02-20T12:15:55+01:00</time>
      </trkpt>
      <trkpt lat="47.3571" lon="0.09012">
        <ele>115</ele>
        <time>2021-02-20T12:16:00+01:00</time>
      </trkpt>
      <trkpt lat="47.35709" lon="0.09028">
        <ele>114</ele>
        <time>2021-02-20T12:16:05+01:00</time>
      </trkpt>
      <trkpt lat="47.35708" lon="0.09045">
        <ele>114</ele>
        <time>2021-02-20T12:16:10+01:00</time>
      </trkpt>
      <trkpt lat="47.35706" lon="0.09061">
        <ele>114</ele>
        <time>2021-02-20T12:16:15+01:00</time>
      </trkpt>
      <trkpt lat="47.35703" lon="0.09121">
        <ele>113</ele>
        <time>2021-02-20T12:16:20+01:00</time>
      </trkpt>
      <trkpt lat="47.35702" lon="0.09172">
        <ele>113</ele>
        <time>2021-02-20T12:16:25+01:00</time>
      </trkpt>
      <trkpt lat="47.35706" lon="0.09286">
        <ele>116</ele>
        <time>2021-02-20T12:16:30+01:00</time>
      </trkpt>
      <trkpt lat="47.35708" lon="0.09326">
        <ele>116</ele>
        <time>2021-02-20T12:16:35+01:00</time>
      </trkpt>
      <trkpt lat="47.35709" lon="0.09374">
        <ele>116</ele>
        <time>2021-02-20T12:16:40+01:00</time>
      </trkpt>
      <trkpt lat="47.35705" lon="0.09425">
        <ele>115</ele>
        <time>2021-02-20T12:16:45+01:00</time>
      </trkpt>
      <trkpt lat="47.35702" lon="0.09459">
        <ele>115</ele>
        <time>2021-02-20T12:16:50+01:00</time>
      </trkpt>
      <trkpt lat="47.357" lon="0.09483">
        <ele>115</ele>
        <time>2021-02-20T12:16:55+01:00</time>
      </trkpt>
      <trkpt lat="47.35701" lon="0.09493">
        <ele>115</ele>
        <time>2021-02-20T12:17:00+01:00</time>
      </trkpt>
      <trkpt lat="47.35725" lon="0.09517">
        <ele>114</ele>
        <time>2021-02-20T12:17:05+01:00</time>
      </trkpt>
      <trkpt lat="47.35747" lon="0.09542">
        <ele>114</ele>
        <time>2021-02-20T12:17:10+01:00</time>
      </trkpt>
      <trkpt lat="47.35758" lon="0.09558">
        <ele>114</ele>
        <time>2021-02-20T12:17:15+01:00</time>
      </trkpt>
      <trkpt lat="47.3577" lon="0.09573">
        <ele>114</ele>
        <time>2021-02-20T12:17:20+01:00</time>
      </trkpt>
      <trkpt lat="47.35783" lon="0.09598">
        <ele>114</ele>
        <time>2021-02-20T12:17:25+01:00</time>
      </trkpt>
      <trkpt lat="47.35792" lon="0.09616">
        <ele>115</ele>
        <time>2021-02-20T12:17:30+01:00</time>
      </trkpt>
      <trkpt lat="47.35801" lon="0.09643">
        <ele>115</ele>
        <time>2021-02-20T12:17:35+01:00</time>
      </trkpt>
      <trkpt lat="47.35806" lon="0.09661">
        <ele>115</ele>
        <time>2021-02-20T12:17:40+01:00</time>
      </trkpt>
      <trkpt lat="47.35814" lon="0.09692">
        <ele>115</ele>
        <time>2021-02-20T12:17:45+01:00</time>
      </trkpt>
      <trkpt lat="47.35821" lon="0.09718">
        <ele>116</ele>
        <time>2021-02-20T12:17:50+01:00</time>
      </trkpt>
      <trkpt lat="47.35827" lon="0.09739">
        <ele>116</ele>
        <time>2021-02-20T12:17:55+01:00</time>
      </trkpt>
      <trkpt lat="47.35834" lon="0.09754">
        <ele>116</ele>
        <time>2021-02-20T12:18:00+01:00</time>
      </trkpt>
      <trkpt lat="47.35845" lon="0.09777">
        <ele>116</ele>
        <time>2021-02-20T12:18:05+01:00</time>
      </trkpt>
      <trkpt lat="47.35854" lon="0.09794">
        <ele>116</ele>
        <time>2021-02-20T12:18:10+01:00</time>
      </trkpt>
      <trkpt lat="47.35859" lon="0.09802">
        <ele>117</ele>
        <time>2021-02-20T12:18:15+01:00</time>
      </trkpt>
      <trkpt lat="47.35862" lon="0.09809">
        <ele>117</ele>
        <time>2021-02-20T12:18:20+01:00</time>
      </trkpt>
      <trkpt lat="47.3588" lon="0.09835">
        <ele>118</ele>
        <time>2021-02-20T12:18:25+01:00</time>
      </trkpt>
      <trkpt lat="47.35899" lon="0.09856">
        <ele>119</ele>
        <time>2021-02-20T12:18:30+01:00</time>
      </trkpt>
      <trkpt lat="47.35915" lon="0.09874">
        <ele>118</ele>
        <time>2021-02-20T12:18:35+01:00</time>
      </trkpt>
      <trkpt lat="47.35955" lon="0.09914">
        <ele>117</ele>
        <time>2021-02-20T12:18:40+01:00</time>
      </trkpt>
      <trkpt lat="47.35967" lon="0.09933">
        <ele>116</ele>
        <time>2021-02-20T12:18:45+01:00</time>
      </trkpt>
      <trkpt lat="47.35976" lon="0.09957">
        <ele>116</ele>
        <time>2021-02-20T12:18:50+01:00</time>
      </trkpt>
      <trkpt lat="47.36006" lon="0.10006">
        <ele>115</ele>
        <time>2021-02-20T12:18:55+01:00</time>
      </trkpt>
      <trkpt lat="47.36042" lon="0.10086">
        <ele>114</ele>
        <time>2021-02-20T12:19:00+01:00</time>
      </trkpt>
      <trkpt lat="47.3608" lon="0.10173">
        <ele>108</ele>
        <time>2021-02-20T12:19:05+01:00</time>
      </trkpt>
      <trkpt lat="47.36104" lon="0.10229">
        <ele>107</ele>
        <time>2021-02-20T12:19:10+01:00</time>
      </trkpt>
      <trkpt lat="47.36126" lon="0.10286">
        <ele>106</ele>
        <time>2021-02-20T12:19:15+01:00</time>
      </trkpt>
      <trkpt lat="47.3614" lon="0.10323">
        <ele>106</ele>
        <time>2021-02-20T12:19:20+01:00</time>
      </trkpt>
      <trkpt lat="47.36145" lon="0.10382">
        <ele>104</ele>
        <time>2021-02-20T12:19:25+01:00</time>
      </trkpt>
      <trkpt lat="47.36154" lon="0.10418">
        <ele>103</ele>
        <time>2021-02-20T12:19:30+01:00</time>
      </trkpt>
      <trkpt lat="47.36156" lon="0.10436">
        <ele>102</ele>
        <time>2021-02-20T12:19:35+01:00</time>
      </trkpt>
      <trkpt lat="47.36171" lon="0.10463">
        <ele>101</ele>
        <time>2021-02-20T12:19:40+01:00</time>
      </trkpt>
      <trkpt lat="47.36246" lon="0.10593">
        <ele>96</ele>
        <time>2021-02-20T12:19:45+01:00</time>
      </trkpt>
      <trkpt lat="47.36274" lon="0.10636">
        <ele>95</ele>
        <time>2021-02-20T12:19:50+01:00</time>
      </trkpt>
      <trkpt lat="47.36299" lon="0.10681">
        <ele>95</ele>
        <time>2021-02-20T12:19:55+01:00</time>
      </trkpt>
      <trkpt lat="47.36333" lon="0.10726">
        <ele>95</ele>
        <time>2021-02-20T12:20:00+01:00</time>
      </trkpt>
      <trkpt lat="47.36375" lon="0.10784">
        <ele>95</ele>
        <time>2021-02-20T12:20:05+01:00</time>
      </trkpt>
      <trkpt lat="47.36402" lon="0.10821">
        <ele>96</ele>
        <time>2021-02-20T12:20:10+01:00</time>
      </trkpt>
      <trkpt lat="47.36439" lon="0.10881">
        <ele>96</ele>
        <time>2021-02-20T12:20:15+01:00</time>
      </trkpt>
      <trkpt lat="47.3648" lon="0.10935">
        <ele>96</ele>
        <time>2021-02-20T12:20:20+01:00</time>
      </trkpt>
      <trkpt lat="47.36494" lon="0.10957">
        <ele>95</ele>
        <time>2021-02-20T12:20:25+01:00</time>
      </trkpt>
      <trkpt lat="47.36588" lon="0.11023">
        <ele>96</ele>
        <time>2021-02-20T12:20:30+01:00</time>
      </trkpt>
      <trkpt lat="47.36634" lon="0.1105">
        <ele>98</ele>
        <time>2021-02-20T12:20:35+01:00</time>
      </trkpt>
      <trkpt lat="47.36669" lon="0.11067">
        <ele>99</ele>
        <time>2021-02-20T12:20:40+01:00</time>
      </trkpt>
      <trkpt lat="47.36773" lon="0.11144">
        <ele>107</ele>
        <time>2021-02-20T12:20:45+01:00</time>
      </trkpt>
      <trkpt lat="47.36804" lon="0.11167">
        <ele>106</ele>
        <time>2021-02-20T12:20:50+01:00</time>
      </trkpt>
      <trkpt lat="47.36896" lon="0.11218">
        <ele>99</ele>
        <time>2021-02-20T12:20:55+01:00</time>
      </trkpt>
      <trkpt lat="47.36915" lon="0.1123">
        <ele>98</ele>
        <time>2021-02-20T12:21:00+01:00</time>
      </trkpt>
      <trkpt lat="47.36954" lon="0.11288">
        <ele>96</ele>
        <time>2021-02-20T12:21:05+01:00</time>
      </trkpt>
      <trkpt lat="47.37109" lon="0.11299">
        <ele>100</ele>
        <time>2021-02-20T12:21:10+01:00</time>
      </trkpt>
      <trkpt lat="47.3718" lon="0.11303">
        <ele>98</ele>
        <time>2021-02-20T12:21:15+01:00</time>
      </trkpt>
      <trkpt lat="47.37166" lon="0.11346">
        <ele>97</ele>
        <time>2021-02-20T12:21:20+01:00</time>
      </trkpt>
      <trkpt lat="47.37159" lon="0.11364">
        <ele>97</ele>
        <time>2021-02-20T12:21:25+01:00</time>
      </trkpt>
      <trkpt lat="47.3711" lon="0.11444">
        <ele>98</ele>
        <time>2021-02-20T12:21:30+01:00</time>
      </trkpt>
      <trkpt lat="47.3709" lon="0.11472">
        <ele>98</ele>
        <time>2021-02-20T12:21:35+01:00</time>
      </trkpt>
      <trkpt lat="47.37033" lon="0.11538">
        <ele>97</ele>
        <time>2021-02-20T12:21:40+01:00</time>
      </trkpt>
      <trkpt lat="47.37014" lon="0.11558">
        <ele>97</ele>
        <time>2021-02-20T12:21:45+01:00</time>
      </trkpt>
      <trkpt lat="47.36976" lon="0.11607">
        <ele>98</ele>
        <time>2021-02-20T12:21:50+01:00</time>
      </trkpt>
      <trkpt lat="47.36931" lon="0.11667">
        <ele>98</ele>
        <time>2021-02-20T12:21:55+01:00</time>
      </trkpt>
      <trkpt lat="47.36885" lon="0.11707">
        <ele>99</ele>
        <time>2021-02-20T12:22:00+01:00</time>
      </trkpt>
      <trkpt lat="47.36846" lon="0.1174">
        <ele>100</ele>
        <time>2021-02-20T12:22:05+01:00</time>
      </trkpt>
      <trkpt lat="47.36809" lon="0.11768">
        <ele>99</ele>
        <time>2021-02-20T12:22:10+01:00</time>
      </trkpt>
      <trkpt lat="47.36769" lon="0.11802">
        <ele>99</ele>
        <time>2021-02-20T12:22:15+01:00</time>
      </trkpt>
      <trkpt lat="47.36729" lon="0.11844">
        <ele>98</ele>
        <time>2021-02-20T12:22:20+01:00</time>
      </trkpt>
      <trkpt lat="47.36707" lon="0.11867">
        <ele>98</ele>
        <time>2021-02-20T12:22:25+01:00</time>
      </trkpt>
      <trkpt lat="47.36672" lon="0.11895">
        <ele>99</ele>
        <time>2021-02-20T12:22:30+01:00</time>
      </trkpt>
      <trkpt lat="47.36683" lon="0.11907">
        <ele>99</ele>
        <time>2021-02-20T12:22:35+01:00</time>
      </trkpt>
      <trkpt lat="47.36692" lon="0.11928">
        <ele>100</ele>
        <time>2021-02-20T12:22:40+01:00</time>
      </trkpt>
      <trkpt lat="47.36751" lon="0.12021">
        <ele>100</ele>
        <time>2021-02-20T12:22:45+01:00</time>
      </trkpt>
      <trkpt lat="47.36778" lon="0.12065">
        <ele>102</ele>
        <time>2021-02-20T12:22:50+01:00</time>
      </trkpt>
      <trkpt lat="47.36809" lon="0.12111">
        <ele>103</ele>
        <time>2021-02-20T12:22:55+01:00</time>
      </trkpt>
      <trkpt lat="47.36862" lon="0.12179">
        <ele>101</ele>
        <time>2021-02-20T12:23:00+01:00</time>
      </trkpt>
      <trkpt lat="47.36899" lon="0.1222">
        <ele>101</ele>
        <time>2021-02-20T12:23:05+01:00</time>
      </trkpt>
      <trkpt lat="47.36935" lon="0.12258">
        <ele>101</ele>
        <time>2021-02-20T12:23:10+01:00</time>
      </trkpt>
      <trkpt lat="47.36954" lon="0.12276">
        <ele>102</ele>
        <time>2021-02-20T12:23:15+01:00</time>
      </trkpt>
      <trkpt lat="47.36971" lon="0.12293">
        <ele>103</ele>
        <time>2021-02-20T12:23:20+01:00</time>
      </trkpt>
      <trkpt lat="47.36994" lon="0.12317">
        <ele>103</ele>
        <time>2021-02-20T12:23:25+01:00</time>
      </trkpt>
      <trkpt lat="47.37039" lon="0.12344">
        <ele>103</ele>
        <time>2021-02-20T12:23:30+01:00</time>
      </trkpt>
      <trkpt lat="47.37041" lon="0.12345">
        <ele>103</ele>
        <time>2021-02-20T12:23:35+01:00</time>
      </trkpt>
      <trkpt lat="47.37114" lon="0.12394">
        <ele>103</ele>
        <time>2021-02-20T12:23:40+01:00</time>
      </trkpt>
      <trkpt lat="47.37165" lon="0.12424">
        <ele>101</ele>
        <time>2021-02-20T12:23:45+01:00</time>
      </trkpt>
      <trkpt lat="47.37205" lon="0.1245">
        <ele>100</ele>
        <time>2021-02-20T12:23:50+01:00</time>
      </trkpt>
      <trkpt lat="47.37258" lon="0.12495">
        <ele>99</ele>
        <time>2021-02-20T12:23:55+01:00</time>
      </trkpt>
      <trkpt lat="47.3728" lon="0.12512">
        <ele>99</ele>
        <time>2021-02-20T12:24:00+01:00</time>
      </trkpt>
      <trkpt lat="47.3736" lon="0.12558">
        <ele>99</ele>
        <time>2021-02-20T12:24:05+01:00</time>
      </trkpt>
      <trkpt lat="47.3738" lon="0.12574">
        <ele>99</ele>
        <time>2021-02-20T12:24:10+01:00</time>
      </trkpt>
      <trkpt lat="47.37448" lon="0.12603">
        <ele>100</ele>
        <time>2021-02-20T12:24:15+01:00</time>
      </trkpt>
      <trkpt lat="47.3747" lon="0.12614">
        <ele>101</ele>
        <time>2021-02-20T12:24:20+01:00</time>
      </trkpt>
      <trkpt lat="47.37497" lon="0.12621">
        <ele>102</ele>
        <time>2021-02-20T12:24:25+01:00</time>
      </trkpt>
      <trkpt lat="47.37505" lon="0.12582">
        <ele>98</ele>
        <time>2021-02-20T12:24:30+01:00</time>
      </trkpt>
      <trkpt lat="47.37513" lon="0.12551">
        <ele>97</ele>
        <time>2021-02-20T12:24:35+01:00</time>
      </trkpt>
      <trkpt lat="47.37536" lon="0.12454">
        <ele>94</ele>
        <time>2021-02-20T12:24:40+01:00</time>
      </trkpt>
      <trkpt lat="47.37557" lon="0.12348">
        <ele>89</ele>
        <time>2021-02-20T12:24:45+01:00</time>
      </trkpt>
      <trkpt lat="47.3758" lon="0.12248">
        <ele>86</ele>
        <time>2021-02-20T12:24:50+01:00</time>
      </trkpt>
      <trkpt lat="47.37604" lon="0.12147">
        <ele>85</ele>
        <time>2021-02-20T12:24:55+01:00</time>
      </trkpt>
      <trkpt lat="47.37634" lon="0.12017">
        <ele>84</ele>
        <time>2021-02-20T12:25:00+01:00</time>
      </trkpt>
      <trkpt lat="47.37643" lon="0.1197">
        <ele>85</ele>
        <time>2021-02-20T12:25:05+01:00</time>
      </trkpt>
      <trkpt lat="47.3764" lon="0.11935">
        <ele>86</ele>
        <time>2021-02-20T12:25:10+01:00</time>
      </trkpt>
      <trkpt lat="47.37621" lon="0.11886">
        <ele>85</ele>
        <time>2021-02-20T12:25:15+01:00</time>
      </trkpt>
      <trkpt lat="47.37617" lon="0.11864">
        <ele>85</ele>
        <time>2021-02-20T12:25:20+01:00</time>
      </trkpt>
      <trkpt lat="47.37622" lon="0.11795">
        <ele>85</ele>
        <time>2021-02-20T12:25:25+01:00</time>
      </trkpt>
      <trkpt lat="47.3763" lon="0.11694">
        <ele>84</ele>
        <time>2021-02-20T12:25:30+01:00</time>
      </trkpt>
      <trkpt lat="47.37644" lon="0.11669">
        <ele>84</ele>
        <time>2021-02-20T12:25:35+01:00</time>
      </trkpt>
      <trkpt lat="47.37691" lon="0.11646">
        <ele>85</ele>
        <time>2021-02-20T12:25:40+01:00</time>
      </trkpt>
      <trkpt lat="47.37699" lon="0.11641">
        <ele>85</ele>
        <time>2021-02-20T12:25:45+01:00</time>
      </trkpt>
      <trkpt lat="47.37764" lon="0.11585">
        <ele>84</ele>
        <time>2021-02-20T12:25:50+01:00</time>
      </trkpt>
      <trkpt lat="47.3778" lon="0.11564">
        <ele>83</ele>
        <time>2021-02-20T12:25:55+01:00</time>
      </trkpt>
      <trkpt lat="47.37783" lon="0.11539">
        <ele>83</ele>
        <time>2021-02-20T12:26:00+01:00</time>
      </trkpt>
      <trkpt lat="47.37781" lon="0.11498">
        <ele>84</ele>
        <time>2021-02-20T12:26:05+01:00</time>
      </trkpt>
      <trkpt lat="47.37775" lon="0.11404">
        <ele>85</ele>
        <time>2021-02-20T12:26:10+01:00</time>
      </trkpt>
      <trkpt lat="47.37763" lon="0.11235">
        <ele>87</ele>
        <time>2021-02-20T12:26:15+01:00</time>
      </trkpt>
      <trkpt lat="47.37759" lon="0.11137">
        <ele>91</ele>
        <time>2021-02-20T12:26:20+01:00</time>
      </trkpt>
      <trkpt lat="47.3777" lon="0.11037">
        <ele>96</ele>
        <time>2021-02-20T12:26:25+01:00</time>
      </trkpt>
      <trkpt lat="47.37777" lon="0.11031">
        <ele>96</ele>
        <time>2021-02-20T12:26:30+01:00</time>
      </trkpt>
      <trkpt lat="47.37757" lon="0.10994">
        <ele>97</ele>
        <time>2021-02-20T12:26:35+01:00</time>
      </trkpt>
      <trkpt lat="47.37733" lon="0.10952">
        <ele>100</ele>
        <time>2021-02-20T12:26:40+01:00</time>
      </trkpt>
      <trkpt lat="47.37711" lon="0.10924">
        <ele>102</ele>
        <time>2021-02-20T12:26:45+01:00</time>
      </trkpt>
      <trkpt lat="47.37668" lon="0.10884">
        <ele>104</ele>
        <time>2021-02-20T12:26:50+01:00</time>
      </trkpt>
      <trkpt lat="47.37634" lon="0.10854">
        <ele>104</ele>
        <time>2021-02-20T12:26:55+01:00</time>
      </trkpt>
      <trkpt lat="47.37613" lon="0.10826">
        <ele>104</ele>
        <time>2021-02-20T12:27:00+01:00</time>
      </trkpt>
      <trkpt lat="47.37589" lon="0.10793">
        <ele>106</ele>
        <time>2021-02-20T12:27:05+01:00</time>
      </trkpt>
      <trkpt lat="47.37555" lon="0.10727">
        <ele>110</ele>
        <time>2021-02-20T12:27:10+01:00</time>
      </trkpt>
      <trkpt lat="47.37522" lon="0.10672">
        <ele>110</ele>
        <time>2021-02-20T12:27:15+01:00</time>
      </trkpt>
      <trkpt lat="47.37502" lon="0.10629">
        <ele>109</ele>
        <time>2021-02-20T12:27:20+01:00</time>
      </trkpt>
      <trkpt lat="47.37482" lon="0.10593">
        <ele>109</ele>
        <time>2021-02-20T12:27:25+01:00</time>
      </trkpt>
      <trkpt lat="47.37431" lon="0.10513">
        <ele>113</ele>
        <time>2021-02-20T12:27:30+01:00</time>
      </trkpt>
      <trkpt lat="47.37402" lon="0.10461">
        <ele>115</ele>
        <time>2021-02-20T12:27:35+01:00</time>
      </trkpt>
      <trkpt lat="47.37355" lon="0.10338">
        <ele>117</ele>
        <time>2021-02-20T12:27:40+01:00</time>
      </trkpt>
      <trkpt lat="47.37347" lon="0.10336">
        <ele>117</ele>
        <time>2021-02-20T12:27:45+01:00</time>
      </trkpt>
      <trkpt lat="47.373" lon="0.10276">
        <ele>116</ele>
        <time>2021-02-20T12:27:50+01:00</time>
      </trkpt>
      <trkpt lat="47.37233" lon="0.10206">
        <ele>117</ele>
        <time>2021-02-20T12:27:55+01:00</time>
      </trkpt>
      <trkpt lat="47.37132" lon="0.10065">
        <ele>121</ele>
        <time>2021-02-20T12:28:00+01:00</time>
      </trkpt>
      <trkpt lat="47.37099" lon="0.10022">
        <ele>120</ele>
        <time>2021-02-20T12:28:05+01:00</time>
      </trkpt>
      <trkpt lat="47.3706" lon="0.09977">
        <ele>119</ele>
        <time>2021-02-20T12:28:10+01:00</time>
      </trkpt>
      <trkpt lat="47.36993" lon="0.09914">
        <ele>118</ele>
        <time>2021-02-20T12:28:15+01:00</time>
      </trkpt>
      <trkpt lat="47.3694" lon="0.09871">
        <ele>114</ele>
        <time>2021-02-20T12:28:20+01:00</time>
      </trkpt>
      <trkpt lat="47.36898" lon="0.0983">
        <ele>114</ele>
        <time>2021-02-20T12:28:25+01:00</time>
      </trkpt>
      <trkpt lat="47.36993" lon="0.09767">
        <ele>116</ele>
        <time>2021-02-20T12:28:30+01:00</time>
      </trkpt>
      <trkpt lat="47.37031" lon="0.09746">
        <ele>116</ele>
        <time>2021-02-20T12:28:35+01:00</time>
      </trkpt>
      <trkpt lat="47.37122" lon="0.09688">
        <ele>114</ele>
        <time>2021-02-20T12:28:40+01:00</time>
      </trkpt>
      <trkpt lat="47.37136" lon="0.0968">
        <ele>114</ele>
        <time>2021-02-20T12:28:45+01:00</time>
      </trkpt>
      <trkpt lat="47.37162" lon="0.09663">
        <ele>113</ele>
        <time>2021-02-20T12:28:50+01:00</time>
      </trkpt>
      <trkpt lat="47.37184" lon="0.09653">
        <ele>113</ele>
        <time>2021-02-20T12:28:55+01:00</time>
      </trkpt>
      <trkpt lat="47.37268" lon="0.09635">
        <ele>112</ele>
        <time>2021-02-20T12:29:00+01:00</time>
      </trkpt>
      <trkpt lat="47.37312" lon="0.09622">
        <ele>111</ele>
        <time>2021-02-20T12:29:05+01:00</time>
      </trkpt>
      <trkpt lat="47.37349" lon="0.09615">
        <ele>110</ele>
        <time>2021-02-20T12:29:10+01:00</time>
      </trkpt>
      <trkpt lat="47.37417" lon="0.09602">
        <ele>108</ele>
        <time>2021-02-20T12:29:15+01:00</time>
      </trkpt>
      <trkpt lat="47.37447" lon="0.09591">
        <ele>107</ele>
        <time>2021-02-20T12:29:20+01:00</time>
      </trkpt>
      <trkpt lat="47.37489" lon="0.09575">
        <ele>104</ele>
        <time>2021-02-20T12:29:25+01:00</time>
      </trkpt>
      <trkpt lat="47.3753" lon="0.09563">
        <ele>102</ele>
        <time>2021-02-20T12:29:30+01:00</time>
      </trkpt>
      <trkpt lat="47.37618" lon="0.09551">
        <ele>98</ele>
        <time>2021-02-20T12:29:35+01:00</time>
      </trkpt>
      <trkpt lat="47.37675" lon="0.0953">
        <ele>96</ele>
        <time>2021-02-20T12:29:40+01:00</time>
      </trkpt>
      <trkpt lat="47.37726" lon="0.09516">
        <ele>95</ele>
        <time>2021-02-20T12:29:45+01:00</time>
      </trkpt>
      <trkpt lat="47.3779" lon="0.09491">
        <ele>95</ele>
        <time>2021-02-20T12:29:50+01:00</time>
      </trkpt>
      <trkpt lat="47.37849" lon="0.09479">
        <ele>95</ele>
        <time>2021-02-20T12:29:55+01:00</time>
      </trkpt>
      <trkpt lat="47.37882" lon="0.09473">
        <ele>96</ele>
        <time>2021-02-20T12:30:00+01:00</time>
      </trkpt>
      <trkpt lat="47.37962" lon="0.09444">
        <ele>93</ele>
        <time>2021-02-20T12:30:05+01:00</time>
      </trkpt>
      <trkpt lat="47.38012" lon="0.0944">
        <ele>90</ele>
        <time>2021-02-20T12:30:10+01:00</time>
      </trkpt>
      <trkpt lat="47.38094" lon="0.09453">
        <ele>89</ele>
        <time>2021-02-20T12:30:15+01:00</time>
      </trkpt>
      <trkpt lat="47.38121" lon="0.09457">
        <ele>88</ele>
        <time>2021-02-20T12:30:20+01:00</time>
      </trkpt>
      <trkpt lat="47.38167" lon="0.0947">
        <ele>88</ele>
        <time>2021-02-20T12:30:25+01:00</time>
      </trkpt>
      <trkpt lat="47.38226" lon="0.09504">
        <ele>88</ele>
        <time>2021-02-20T12:30:30+01:00</time>
      </trkpt>
      <trkpt lat="47.38289" lon="0.0954">
        <ele>88</ele>
        <time>2021-02-20T12:30:35+01:00</time>
      </trkpt>
      <trkpt lat="47.38315" lon="0.0954">
        <ele>87</ele>
        <time>2021-02-20T12:30:40+01:00</time>
      </trkpt>
      <trkpt lat="47.38331" lon="0.09537">
        <ele>86</ele>
        <time>2021-02-20T12:30:45+01:00</time>
      </trkpt>
      <trkpt lat="47.38365" lon="0.09523">
        <ele>84</ele>
        <time>2021-02-20T12:30:50+01:00</time>
      </trkpt>
      <trkpt lat="47.38396" lon="0.09506">
        <ele>82</ele>
        <time>2021-02-20T12:30:55+01:00</time>
      </trkpt>
      <trkpt lat="47.38428" lon="0.09501">
        <ele>80</ele>
        <time>2021-02-20T12:31:00+01:00</time>
      </trkpt>
      <trkpt lat="47.38442" lon="0.09476">
        <ele>79</ele>
        <time>2021-02-20T12:31:05+01:00</time>
      </trkpt>
      <trkpt lat="47.38453" lon="0.09444">
        <ele>79</ele>
        <time>2021-02-20T12:31:10+01:00</time>
      </trkpt>
      <trkpt lat="47.3846" lon="0.09412">
        <ele>78</ele>
        <time>2021-02-20T12:31:15+01:00</time>
      </trkpt>
      <trkpt lat="47.38463" lon="0.09367">
        <ele>78</ele>
        <time>2021-02-20T12:31:20+01:00</time>
      </trkpt>
      <trkpt lat="47.38461" lon="0.09291">
        <ele>78</ele>
        <time>2021-02-20T12:31:25+01:00</time>
      </trkpt>
      <trkpt lat="47.38457" lon="0.0921">
        <ele>77</ele>
        <time>2021-02-20T12:31:30+01:00</time>
      </trkpt>
      <trkpt lat="47.38461" lon="0.09165">
        <ele>75</ele>
        <time>2021-02-20T12:31:35+01:00</time>
      </trkpt>
      <trkpt lat="47.38468" lon="0.0914">
        <ele>74</ele>
        <time>2021-02-20T12:31:40+01:00</time>
      </trkpt>
      <trkpt lat="47.3846" lon="0.09111">
        <ele>73</ele>
        <time>2021-02-20T12:31:45+01:00</time>
      </trkpt>
      <trkpt lat="47.38457" lon="0.09056">
        <ele>72</ele>
        <time>2021-02-20T12:31:50+01:00</time>
      </trkpt>
      <trkpt lat="47.38457" lon="0.08989">
        <ele>71</ele>
        <time>2021-02-20T12:31:55+01:00</time>
      </trkpt>
      <trkpt lat="47.38468" lon="0.08922">
        <ele>70</ele>
        <time>2021-02-20T12:32:00+01:00</time>
      </trkpt>
      <trkpt lat="47.38473" lon="0.08889">
        <ele>70</ele>
        <time>2021-02-20T12:32:05+01:00</time>
      </trkpt>
      <trkpt lat="47.38458" lon="0.08849">
        <ele>70</ele>
        <time>2021-02-20T12:32:10+01:00</time>
      </trkpt>
      <trkpt lat="47.38392" lon="0.08642">
        <ele>71</ele>
        <time>2021-02-20T12:32:15+01:00</time>
      </trkpt>
      <trkpt lat="47.38385" lon="0.08616">
        <ele>72</ele>
        <time>2021-02-20T12:32:20+01:00</time>
      </trkpt>
      <trkpt lat="47.38383" lon="0.08598">
        <ele>73</ele>
        <time>2021-02-20T12:32:25+01:00</time>
      </trkpt>
      <trkpt lat="47.3838" lon="0.08583">
        <ele>73</ele>
        <time>2021-02-20T12:32:30+01:00</time>
      </trkpt>
      <trkpt lat="47.3838" lon="0.08542">
        <ele>75</ele>
        <time>2021-02-20T12:32:35+01:00</time>
      </trkpt>
      <trkpt lat="47.38383" lon="0.08509">
        <ele>77</ele>
        <time>2021-02-20T12:32:40+01:00</time>
      </trkpt>
      <trkpt lat="47.38387" lon="0.08467">
        <ele>77</ele>
        <time>2021-02-20T12:32:45+01:00</time>
      </trkpt>
      <trkpt lat="47.38395" lon="0.08405">
        <ele>78</ele>
        <time>2021-02-20T12:32:50+01:00</time>
      </trkpt>
      <trkpt lat="47.38397" lon="0.08378">
        <ele>77</ele>
        <time>2021-02-20T12:32:55+01:00</time>
      </trkpt>
      <trkpt lat="47.38403" lon="0.08326">
        <ele>77</ele>
        <time>2021-02-20T12:33:00+01:00</time>
      </trkpt>
      <trkpt lat="47.38402" lon="0.08318">
        <ele>77</ele>
        <time>2021-02-20T12:33:05+01:00</time>
      </trkpt>
      <trkpt lat="47.38404" lon="0.08315">
        <ele>77</ele>
        <time>2021-02-20T12:33:10+01:00</time>
      </trkpt>
      <trkpt lat="47.38493" lon="0.08227">
        <ele>73</ele>
        <time>2021-02-20T12:33:15+01:00</time>
      </trkpt>
      <trkpt lat="47.38569" lon="0.08153">
        <ele>68</ele>
        <time>2021-02-20T12:33:20+01:00</time>
      </trkpt>
      <trkpt lat="47.38576" lon="0.07966">
        <ele>70</ele>
        <time>2021-02-20T12:33:25+01:00</time>
      </trkpt>
      <trkpt lat="47.3863" lon="0.07966">
        <ele>69</ele>
        <time>2021-02-20T12:33:30+01:00</time>
      </trkpt>
      <trkpt lat="47.38634" lon="0.07953">
        <ele>69</ele>
        <time>2021-02-20T12:33:35+01:00</time>
      </trkpt>
      <trkpt lat="47.38642" lon="0.07941">
        <ele>69</ele>
        <time>2021-02-20T12:33:40+01:00</time>
      </trkpt>
      <trkpt lat="47.3865" lon="0.07915">
        <ele>69</ele>
        <time>2021-02-20T12:33:45+01:00</time>
      </trkpt>
      <trkpt lat="47.3865" lon="0.0785">
        <ele>70</ele>
        <time>2021-02-20T12:33:50+01:00</time>
      </trkpt>
      <trkpt lat="47.3865" lon="0.0782">
        <ele>70</ele>
        <time>2021-02-20T12:33:55+01:00</time>
      </trkpt>
      <trkpt lat="47.38635" lon="0.07806">
        <ele>70</ele>
        <time>2021-02-20T12:34:00+01:00</time>
      </trkpt>
    </trkseg>
  </trk>
</gpx>